sensor_id;sensor_type;location;lat;lon;timestamp;P1;durP1;ratioP1;P2;durP2;ratioP2
75698;SDS011;64313;51.018;13.742;2023-02-28T00:00:29;7.15;;;3.22;;
75698;SDS011;64313;51.018;13.742;2023-02-28T00:02:54;7.03;;;3.08;;
75698;SDS011;64313;51.018;13.742;2023-02-28T00:05:20;7.70;;;3.00;;
75698;SDS011;64313;51.018;13.742;2023-02-28T00:07:47;6.68;;;2.65;;
75698;SDS011;64313;51.018;13.742;2023-02-28T00:10:15;8.27;;;3.10;;
75698;SDS011;64313;51.018;13.742;2023-02-28T00:12:52;6.30;;;3.05;;
75698;SDS011;64313;51.018;13.742;2023-02-28T00:15:19;6.85;;;3.15;;
75698;SDS011;64313;51.018;13.742;2023-02-28T00:17:45;7.78;;;3.38;;
75698;SDS011;64313;51.018;13.742;2023-02-28T00:20:11;6.93;;;3.22;;
75698;SDS011;64313;51.018;13.742;2023-02-28T00:22:44;7.07;;;3.13;;
75698;SDS011;64313;51.018;13.742;2023-02-28T00:25:11;6.00;;;2.67;;
75698;SDS011;64313;51.018;13.742;2023-02-28T00:27:38;7.47;;;2.70;;
75698;SDS011;64313;51.018;13.742;2023-02-28T00:30:05;6.13;;;2.75;;
75698;SDS011;64313;51.018;13.742;2023-02-28T00:32:33;6.35;;;2.70;;
75698;SDS011;64313;51.018;13.742;2023-02-28T00:35:00;7.43;;;2.75;;
75698;SDS011;64313;51.018;13.742;2023-02-28T00:37:25;7.20;;;3.22;;
75698;SDS011;64313;51.018;13.742;2023-02-28T00:39:51;6.38;;;2.60;;
75698;SDS011;64313;51.018;13.742;2023-02-28T00:42:16;7.72;;;2.60;;
75698;SDS011;64313;51.018;13.742;2023-02-28T00:44:41;6.25;;;2.53;;
75698;SDS011;64313;51.018;13.742;2023-02-28T00:47:07;5.45;;;2.50;;
75698;SDS011;64313;51.018;13.742;2023-02-28T00:49:32;5.80;;;2.45;;
75698;SDS011;64313;51.018;13.742;2023-02-28T00:51:58;7.97;;;2.78;;
75698;SDS011;64313;51.018;13.742;2023-02-28T00:54:25;6.97;;;2.65;;
75698;SDS011;64313;51.018;13.742;2023-02-28T00:56:50;7.85;;;2.53;;
75698;SDS011;64313;51.018;13.742;2023-02-28T00:59:16;7.35;;;2.53;;
75698;SDS011;64313;51.018;13.742;2023-02-28T01:01:44;7.78;;;3.08;;
75698;SDS011;64313;51.018;13.742;2023-02-28T01:04:10;6.22;;;2.63;;
75698;SDS011;64313;51.018;13.742;2023-02-28T01:06:36;7.10;;;2.88;;
75698;SDS011;64313;51.018;13.742;2023-02-28T01:09:02;6.28;;;2.70;;
75698;SDS011;64313;51.018;13.742;2023-02-28T01:11:28;6.97;;;2.85;;
75698;SDS011;64313;51.018;13.742;2023-02-28T01:13:54;6.90;;;2.72;;
75698;SDS011;64313;51.018;13.742;2023-02-28T01:16:19;8.55;;;2.78;;
75698;SDS011;64313;51.018;13.742;2023-02-28T01:18:44;5.70;;;2.50;;
75698;SDS011;64313;51.018;13.742;2023-02-28T01:21:11;6.65;;;2.70;;
75698;SDS011;64313;51.018;13.742;2023-02-28T01:23:39;7.75;;;2.90;;
75698;SDS011;64313;51.018;13.742;2023-02-28T01:26:06;7.05;;;3.08;;
75698;SDS011;64313;51.018;13.742;2023-02-28T01:28:32;6.38;;;2.85;;
75698;SDS011;64313;51.018;13.742;2023-02-28T01:30:58;8.98;;;3.22;;
75698;SDS011;64313;51.018;13.742;2023-02-28T01:33:24;7.07;;;3.17;;
75698;SDS011;64313;51.018;13.742;2023-02-28T01:35:58;8.73;;;3.00;;
75698;SDS011;64313;51.018;13.742;2023-02-28T01:38:24;7.88;;;2.92;;
75698;SDS011;64313;51.018;13.742;2023-02-28T01:40:50;7.03;;;3.15;;
75698;SDS011;64313;51.018;13.742;2023-02-28T01:43:22;7.65;;;3.78;;
75698;SDS011;64313;51.018;13.742;2023-02-28T01:45:54;8.55;;;3.00;;
75698;SDS011;64313;51.018;13.742;2023-02-28T01:48:25;7.50;;;3.20;;
75698;SDS011;64313;51.018;13.742;2023-02-28T01:50:52;8.07;;;3.10;;
75698;SDS011;64313;51.018;13.742;2023-02-28T01:53:23;7.63;;;3.22;;
75698;SDS011;64313;51.018;13.742;2023-02-28T01:55:55;8.18;;;3.20;;
75698;SDS011;64313;51.018;13.742;2023-02-28T01:58:21;6.85;;;3.13;;
75698;SDS011;64313;51.018;13.742;2023-02-28T02:00:47;8.43;;;3.15;;
75698;SDS011;64313;51.018;13.742;2023-02-28T02:03:13;9.23;;;3.90;;
75698;SDS011;64313;51.018;13.742;2023-02-28T02:05:44;8.88;;;3.33;;
75698;SDS011;64313;51.018;13.742;2023-02-28T02:08:20;8.95;;;3.17;;
75698;SDS011;64313;51.018;13.742;2023-02-28T02:10:48;7.85;;;3.08;;
75698;SDS011;64313;51.018;13.742;2023-02-28T02:13:21;7.90;;;3.50;;
75698;SDS011;64313;51.018;13.742;2023-02-28T02:16:19;9.30;;;3.40;;
75698;SDS011;64313;51.018;13.742;2023-02-28T02:38:18;8.82;;;3.70;;
75698;SDS011;64313;51.018;13.742;2023-02-28T02:41:03;9.50;;;3.38;;
75698;SDS011;64313;51.018;13.742;2023-02-28T02:43:36;10.75;;;3.50;;
75698;SDS011;64313;51.018;13.742;2023-02-28T02:46:10;7.70;;;3.28;;
75698;SDS011;64313;51.018;13.742;2023-02-28T02:48:43;7.32;;;3.50;;
75698;SDS011;64313;51.018;13.742;2023-02-28T02:51:16;8.73;;;3.53;;
75698;SDS011;64313;51.018;13.742;2023-02-28T02:53:46;8.38;;;3.33;;
75698;SDS011;64313;51.018;13.742;2023-02-28T02:56:19;8.02;;;3.45;;
75698;SDS011;64313;51.018;13.742;2023-02-28T02:58:47;6.75;;;3.10;;
75698;SDS011;64313;51.018;13.742;2023-02-28T03:01:16;8.50;;;3.63;;
75698;SDS011;64313;51.018;13.742;2023-02-28T03:03:55;9.35;;;3.50;;
75698;SDS011;64313;51.018;13.742;2023-02-28T03:06:23;8.75;;;3.50;;
75698;SDS011;64313;51.018;13.742;2023-02-28T03:08:49;8.93;;;3.75;;
75698;SDS011;64313;51.018;13.742;2023-02-28T03:11:14;6.88;;;3.55;;
75698;SDS011;64313;51.018;13.742;2023-02-28T03:27:04;8.55;;;3.50;;
75698;SDS011;64313;51.018;13.742;2023-02-28T03:29:38;7.55;;;3.38;;
75698;SDS011;64313;51.018;13.742;2023-02-28T03:32:12;7.22;;;3.08;;
75698;SDS011;64313;51.018;13.742;2023-02-28T03:34:55;7.47;;;3.40;;
75698;SDS011;64313;51.018;13.742;2023-02-28T03:37:38;8.27;;;3.72;;
75698;SDS011;64313;51.018;13.742;2023-02-28T03:40:14;7.75;;;3.58;;
75698;SDS011;64313;51.018;13.742;2023-02-28T03:42:45;6.75;;;3.20;;
75698;SDS011;64313;51.018;13.742;2023-02-28T03:45:16;8.52;;;3.35;;
75698;SDS011;64313;51.018;13.742;2023-02-28T03:47:50;8.13;;;3.53;;
75698;SDS011;64313;51.018;13.742;2023-02-28T03:53:01;8.60;;;3.15;;
75698;SDS011;64313;51.018;13.742;2023-02-28T03:55:34;8.02;;;3.67;;
75698;SDS011;64313;51.018;13.742;2023-02-28T03:58:21;9.27;;;3.25;;
75698;SDS011;64313;51.018;13.742;2023-02-28T04:01:11;8.85;;;3.53;;
75698;SDS011;64313;51.018;13.742;2023-02-28T04:03:40;9.27;;;3.83;;
75698;SDS011;64313;51.018;13.742;2023-02-28T04:06:07;10.75;;;3.55;;
75698;SDS011;64313;51.018;13.742;2023-02-28T04:08:37;10.40;;;3.67;;
75698;SDS011;64313;51.018;13.742;2023-02-28T04:11:20;8.63;;;4.05;;
75698;SDS011;64313;51.018;13.742;2023-02-28T04:14:00;9.48;;;4.00;;
75698;SDS011;64313;51.018;13.742;2023-02-28T04:16:27;8.30;;;3.83;;
75698;SDS011;64313;51.018;13.742;2023-02-28T04:18:52;8.32;;;3.45;;
75698;SDS011;64313;51.018;13.742;2023-02-28T04:21:18;8.95;;;3.67;;
75698;SDS011;64313;51.018;13.742;2023-02-28T04:23:45;9.13;;;3.83;;
75698;SDS011;64313;51.018;13.742;2023-02-28T04:26:11;8.88;;;3.90;;
75698;SDS011;64313;51.018;13.742;2023-02-28T04:28:36;10.77;;;3.67;;
75698;SDS011;64313;51.018;13.742;2023-02-28T04:31:03;7.90;;;3.42;;
75698;SDS011;64313;51.018;13.742;2023-02-28T04:33:30;10.35;;;4.05;;
75698;SDS011;64313;51.018;13.742;2023-02-28T04:35:57;8.30;;;3.42;;
75698;SDS011;64313;51.018;13.742;2023-02-28T04:38:24;9.88;;;4.00;;
75698;SDS011;64313;51.018;13.742;2023-02-28T04:40:49;8.07;;;3.83;;
75698;SDS011;64313;51.018;13.742;2023-02-28T04:43:14;9.77;;;4.32;;
75698;SDS011;64313;51.018;13.742;2023-02-28T04:45:40;11.38;;;3.90;;
75698;SDS011;64313;51.018;13.742;2023-02-28T04:48:05;8.27;;;3.90;;
75698;SDS011;64313;51.018;13.742;2023-02-28T04:50:30;8.48;;;3.75;;
75698;SDS011;64313;51.018;13.742;2023-02-28T04:52:56;9.98;;;4.00;;
75698;SDS011;64313;51.018;13.742;2023-02-28T04:55:21;10.80;;;4.00;;
75698;SDS011;64313;51.018;13.742;2023-02-28T04:57:47;9.75;;;4.18;;
75698;SDS011;64313;51.018;13.742;2023-02-28T05:00:12;10.10;;;4.55;;
75698;SDS011;64313;51.018;13.742;2023-02-28T05:02:40;8.40;;;3.78;;
75698;SDS011;64313;51.018;13.742;2023-02-28T05:05:05;9.70;;;4.22;;
75698;SDS011;64313;51.018;13.742;2023-02-28T05:07:31;12.15;;;4.25;;
75698;SDS011;64313;51.018;13.742;2023-02-28T05:09:56;12.20;;;4.63;;
75698;SDS011;64313;51.018;13.742;2023-02-28T05:12:21;9.40;;;4.03;;
75698;SDS011;64313;51.018;13.742;2023-02-28T05:14:47;9.95;;;4.32;;
75698;SDS011;64313;51.018;13.742;2023-02-28T05:17:12;9.68;;;4.10;;
75698;SDS011;64313;51.018;13.742;2023-02-28T05:19:37;8.85;;;4.18;;
75698;SDS011;64313;51.018;13.742;2023-02-28T05:22:03;8.82;;;3.92;;
75698;SDS011;64313;51.018;13.742;2023-02-28T05:24:28;10.63;;;4.13;;
75698;SDS011;64313;51.018;13.742;2023-02-28T05:26:53;7.50;;;4.00;;
75698;SDS011;64313;51.018;13.742;2023-02-28T05:29:19;9.82;;;4.70;;
75698;SDS011;64313;51.018;13.742;2023-02-28T05:31:45;10.95;;;4.10;;
75698;SDS011;64313;51.018;13.742;2023-02-28T05:34:10;8.00;;;4.28;;
75698;SDS011;64313;51.018;13.742;2023-02-28T05:36:37;8.63;;;4.38;;
75698;SDS011;64313;51.018;13.742;2023-02-28T05:39:03;10.27;;;4.40;;
75698;SDS011;64313;51.018;13.742;2023-02-28T05:41:29;9.77;;;4.32;;
75698;SDS011;64313;51.018;13.742;2023-02-28T05:43:55;10.52;;;4.30;;
75698;SDS011;64313;51.018;13.742;2023-02-28T05:46:22;10.25;;;4.22;;
75698;SDS011;64313;51.018;13.742;2023-02-28T05:48:47;10.25;;;4.75;;
75698;SDS011;64313;51.018;13.742;2023-02-28T05:51:13;9.35;;;4.40;;
75698;SDS011;64313;51.018;13.742;2023-02-28T05:53:39;11.63;;;4.32;;
75698;SDS011;64313;51.018;13.742;2023-02-28T05:56:04;11.55;;;4.55;;
75698;SDS011;64313;51.018;13.742;2023-02-28T05:58:30;10.75;;;4.88;;
75698;SDS011;64313;51.018;13.742;2023-02-28T06:00:59;10.77;;;4.82;;
75698;SDS011;64313;51.018;13.742;2023-02-28T06:03:26;10.20;;;4.70;;
75698;SDS011;64313;51.018;13.742;2023-02-28T06:05:52;14.95;;;5.22;;
75698;SDS011;64313;51.018;13.742;2023-02-28T06:08:17;9.30;;;5.05;;
75698;SDS011;64313;51.018;13.742;2023-02-28T06:10:43;11.32;;;4.72;;
75698;SDS011;64313;51.018;13.742;2023-02-28T06:13:09;10.82;;;4.93;;
75698;SDS011;64313;51.018;13.742;2023-02-28T06:18:01;9.77;;;4.63;;
75698;SDS011;64313;51.018;13.742;2023-02-28T06:20:27;11.43;;;5.53;;
75698;SDS011;64313;51.018;13.742;2023-02-28T06:22:55;11.27;;;4.88;;
75698;SDS011;64313;51.018;13.742;2023-02-28T06:25:21;14.27;;;5.50;;
75698;SDS011;64313;51.018;13.742;2023-02-28T06:27:46;11.48;;;4.53;;
75698;SDS011;64313;51.018;13.742;2023-02-28T06:30:13;9.63;;;4.93;;
75698;SDS011;64313;51.018;13.742;2023-02-28T06:32:38;14.55;;;5.50;;
75698;SDS011;64313;51.018;13.742;2023-02-28T06:35:04;12.50;;;5.40;;
75698;SDS011;64313;51.018;13.742;2023-02-28T06:39:56;11.38;;;4.32;;
75698;SDS011;64313;51.018;13.742;2023-02-28T06:42:22;10.68;;;4.82;;
75698;SDS011;64313;51.018;13.742;2023-02-28T06:44:54;10.23;;;4.68;;
75698;SDS011;64313;51.018;13.742;2023-02-28T06:47:20;10.50;;;4.78;;
75698;SDS011;64313;51.018;13.742;2023-02-28T06:49:46;9.48;;;4.70;;
75698;SDS011;64313;51.018;13.742;2023-02-28T06:52:12;10.75;;;5.05;;
75698;SDS011;64313;51.018;13.742;2023-02-28T06:54:37;11.02;;;4.82;;
75698;SDS011;64313;51.018;13.742;2023-02-28T06:57:02;10.93;;;5.10;;
75698;SDS011;64313;51.018;13.742;2023-02-28T06:59:28;11.93;;;5.78;;
75698;SDS011;64313;51.018;13.742;2023-02-28T07:01:53;12.77;;;5.50;;
75698;SDS011;64313;51.018;13.742;2023-02-28T07:04:19;12.85;;;6.10;;
75698;SDS011;64313;51.018;13.742;2023-02-28T07:06:45;12.38;;;5.65;;
75698;SDS011;64313;51.018;13.742;2023-02-28T07:09:10;12.98;;;5.82;;
75698;SDS011;64313;51.018;13.742;2023-02-28T07:11:36;12.50;;;5.53;;
75698;SDS011;64313;51.018;13.742;2023-02-28T07:14:01;12.98;;;5.88;;
75698;SDS011;64313;51.018;13.742;2023-02-28T07:16:26;11.85;;;5.53;;
75698;SDS011;64313;51.018;13.742;2023-02-28T07:18:52;11.15;;;5.13;;
75698;SDS011;64313;51.018;13.742;2023-02-28T07:21:18;12.32;;;5.60;;
75698;SDS011;64313;51.018;13.742;2023-02-28T07:23:44;11.63;;;5.38;;
75698;SDS011;64313;51.018;13.742;2023-02-28T07:26:13;12.27;;;5.13;;
75698;SDS011;64313;51.018;13.742;2023-02-28T07:28:42;12.50;;;5.68;;
75698;SDS011;64313;51.018;13.742;2023-02-28T07:31:08;11.60;;;5.28;;
75698;SDS011;64313;51.018;13.742;2023-02-28T07:33:34;13.18;;;5.38;;
75698;SDS011;64313;51.018;13.742;2023-02-28T07:36:04;12.02;;;6.03;;
75698;SDS011;64313;51.018;13.742;2023-02-28T07:38:33;12.27;;;5.70;;
75698;SDS011;64313;51.018;13.742;2023-02-28T07:40:59;14.40;;;6.65;;
75698;SDS011;64313;51.018;13.742;2023-02-28T07:43:24;16.70;;;7.38;;
75698;SDS011;64313;51.018;13.742;2023-02-28T07:45:50;16.02;;;7.30;;
75698;SDS011;64313;51.018;13.742;2023-02-28T07:48:15;14.25;;;6.55;;
75698;SDS011;64313;51.018;13.742;2023-02-28T07:50:40;16.13;;;6.57;;
75698;SDS011;64313;51.018;13.742;2023-02-28T07:53:06;14.43;;;6.43;;
75698;SDS011;64313;51.018;13.742;2023-02-28T07:55:31;15.50;;;6.20;;
75698;SDS011;64313;51.018;13.742;2023-02-28T07:57:57;15.52;;;6.43;;
75698;SDS011;64313;51.018;13.742;2023-02-28T08:02:48;12.68;;;5.85;;
75698;SDS011;64313;51.018;13.742;2023-02-28T08:05:14;13.98;;;6.85;;
75698;SDS011;64313;51.018;13.742;2023-02-28T08:07:39;13.90;;;6.07;;
75698;SDS011;64313;51.018;13.742;2023-02-28T08:10:05;14.38;;;6.40;;
75698;SDS011;64313;51.018;13.742;2023-02-28T08:12:30;12.95;;;6.05;;
75698;SDS011;64313;51.018;13.742;2023-02-28T08:14:56;13.05;;;5.68;;
75698;SDS011;64313;51.018;13.742;2023-02-28T08:17:21;11.52;;;5.85;;
75698;SDS011;64313;51.018;13.742;2023-02-28T08:19:47;10.35;;;5.20;;
75698;SDS011;64313;51.018;13.742;2023-02-28T08:22:12;11.95;;;5.47;;
75698;SDS011;64313;51.018;13.742;2023-02-28T08:24:38;12.25;;;5.38;;
75698;SDS011;64313;51.018;13.742;2023-02-28T08:27:05;12.55;;;5.70;;
75698;SDS011;64313;51.018;13.742;2023-02-28T08:29:30;11.27;;;5.60;;
75698;SDS011;64313;51.018;13.742;2023-02-28T08:31:56;13.02;;;5.63;;
75698;SDS011;64313;51.018;13.742;2023-02-28T08:34:21;12.18;;;5.28;;
75698;SDS011;64313;51.018;13.742;2023-02-28T08:36:48;13.07;;;5.85;;
75698;SDS011;64313;51.018;13.742;2023-02-28T08:39:13;11.30;;;5.18;;
75698;SDS011;64313;51.018;13.742;2023-02-28T08:41:38;10.63;;;5.57;;
75698;SDS011;64313;51.018;13.742;2023-02-28T08:44:04;10.85;;;5.15;;
75698;SDS011;64313;51.018;13.742;2023-02-28T08:46:29;10.57;;;4.93;;
75698;SDS011;64313;51.018;13.742;2023-02-28T08:48:55;11.68;;;5.18;;
75698;SDS011;64313;51.018;13.742;2023-02-28T08:51:25;12.15;;;5.65;;
75698;SDS011;64313;51.018;13.742;2023-02-28T08:53:52;11.00;;;5.20;;
75698;SDS011;64313;51.018;13.742;2023-02-28T08:56:18;11.48;;;5.07;;
75698;SDS011;64313;51.018;13.742;2023-02-28T08:58:45;11.30;;;5.57;;
75698;SDS011;64313;51.018;13.742;2023-02-28T09:01:13;10.85;;;5.32;;
75698;SDS011;64313;51.018;13.742;2023-02-28T09:03:39;11.77;;;5.15;;
75698;SDS011;64313;51.018;13.742;2023-02-28T09:06:10;13.35;;;5.22;;
75698;SDS011;64313;51.018;13.742;2023-02-28T09:08:37;12.05;;;5.18;;
75698;SDS011;64313;51.018;13.742;2023-02-28T09:11:02;12.40;;;5.15;;
75698;SDS011;64313;51.018;13.742;2023-02-28T09:13:28;10.70;;;5.28;;
75698;SDS011;64313;51.018;13.742;2023-02-28T09:18:24;12.00;;;5.10;;
75698;SDS011;64313;51.018;13.742;2023-02-28T09:20:49;10.50;;;5.22;;
75698;SDS011;64313;51.018;13.742;2023-02-28T09:23:15;10.85;;;4.95;;
75698;SDS011;64313;51.018;13.742;2023-02-28T09:25:45;11.40;;;5.47;;
75698;SDS011;64313;51.018;13.742;2023-02-28T09:28:15;13.32;;;5.38;;
75698;SDS011;64313;51.018;13.742;2023-02-28T09:30:42;11.40;;;5.05;;
75698;SDS011;64313;51.018;13.742;2023-02-28T09:33:10;11.18;;;5.15;;
75698;SDS011;64313;51.018;13.742;2023-02-28T09:35:35;11.48;;;5.00;;
75698;SDS011;64313;51.018;13.742;2023-02-28T09:38:02;10.85;;;5.35;;
75698;SDS011;64313;51.018;13.742;2023-02-28T09:40:28;9.20;;;4.55;;
75698;SDS011;64313;51.018;13.742;2023-02-28T09:42:54;10.30;;;4.53;;
75698;SDS011;64313;51.018;13.742;2023-02-28T09:45:35;9.77;;;4.90;;
75698;SDS011;64313;51.018;13.742;2023-02-28T09:48:07;9.93;;;4.50;;
75698;SDS011;64313;51.018;13.742;2023-02-28T09:50:41;9.07;;;4.43;;
75698;SDS011;64313;51.018;13.742;2023-02-28T09:53:25;9.85;;;4.53;;
75698;SDS011;64313;51.018;13.742;2023-02-28T09:55:55;9.88;;;4.75;;
75698;SDS011;64313;51.018;13.742;2023-02-28T10:01:06;11.02;;;4.57;;
75698;SDS011;64313;51.018;13.742;2023-02-28T10:04:00;10.60;;;4.88;;
75698;SDS011;64313;51.018;13.742;2023-02-28T10:06:39;9.50;;;4.63;;
75698;SDS011;64313;51.018;13.742;2023-02-28T10:09:11;11.93;;;4.85;;
75698;SDS011;64313;51.018;13.742;2023-02-28T10:11:42;11.27;;;4.60;;
75698;SDS011;64313;51.018;13.742;2023-02-28T10:14:14;7.82;;;3.92;;
75698;SDS011;64313;51.018;13.742;2023-02-28T10:19:40;8.85;;;3.83;;
75698;SDS011;64313;51.018;13.742;2023-02-28T10:24:53;9.88;;;4.20;;
75698;SDS011;64313;51.018;13.742;2023-02-28T10:27:22;11.80;;;4.70;;
75698;SDS011;64313;51.018;13.742;2023-02-28T10:29:50;12.75;;;4.90;;
75698;SDS011;64313;51.018;13.742;2023-02-28T10:32:18;9.77;;;3.90;;
75698;SDS011;64313;51.018;13.742;2023-02-28T10:37:39;8.23;;;4.53;;
75698;SDS011;64313;51.018;13.742;2023-02-28T10:40:06;10.63;;;4.40;;
75698;SDS011;64313;51.018;13.742;2023-02-28T10:42:56;10.40;;;5.00;;
75698;SDS011;64313;51.018;13.742;2023-02-28T10:45:23;12.32;;;5.35;;
75698;SDS011;64313;51.018;13.742;2023-02-28T10:47:57;10.07;;;5.00;;
75698;SDS011;64313;51.018;13.742;2023-02-28T10:50:41;10.00;;;5.28;;
75698;SDS011;64313;51.018;13.742;2023-02-28T11:01:47;9.15;;;4.50;;
75698;SDS011;64313;51.018;13.742;2023-02-28T11:07:02;11.40;;;4.85;;
75698;SDS011;64313;51.018;13.742;2023-02-28T11:09:33;9.40;;;4.68;;
75698;SDS011;64313;51.018;13.742;2023-02-28T11:12:01;10.43;;;5.07;;
75698;SDS011;64313;51.018;13.742;2023-02-28T11:14:33;10.63;;;5.15;;
75698;SDS011;64313;51.018;13.742;2023-02-28T11:17:14;11.05;;;4.95;;
75698;SDS011;64313;51.018;13.742;2023-02-28T11:19:50;10.02;;;5.10;;
75698;SDS011;64313;51.018;13.742;2023-02-28T11:22:24;10.20;;;4.90;;
75698;SDS011;64313;51.018;13.742;2023-02-28T11:24:54;10.27;;;4.78;;
75698;SDS011;64313;51.018;13.742;2023-02-28T11:29:57;9.98;;;4.60;;
75698;SDS011;64313;51.018;13.742;2023-02-28T11:32:24;10.27;;;4.85;;
75698;SDS011;64313;51.018;13.742;2023-02-28T11:35:10;9.38;;;4.63;;
75698;SDS011;64313;51.018;13.742;2023-02-28T11:37:42;11.32;;;4.75;;
75698;SDS011;64313;51.018;13.742;2023-02-28T11:43:43;10.48;;;4.65;;
75698;SDS011;64313;51.018;13.742;2023-02-28T11:49:00;10.02;;;5.20;;
75698;SDS011;64313;51.018;13.742;2023-02-28T11:57:35;9.98;;;4.72;;
75698;SDS011;64313;51.018;13.742;2023-02-28T12:08:36;11.02;;;5.22;;
75698;SDS011;64313;51.018;13.742;2023-02-28T12:16:48;9.88;;;4.95;;
75698;SDS011;64313;51.018;13.742;2023-02-28T12:19:26;11.00;;;4.63;;
75698;SDS011;64313;51.018;13.742;2023-02-28T12:25:13;12.43;;;5.05;;
75698;SDS011;64313;51.018;13.742;2023-02-28T12:27:49;10.23;;;5.03;;
75698;SDS011;64313;51.018;13.742;2023-02-28T12:30:22;10.50;;;5.18;;
75698;SDS011;64313;51.018;13.742;2023-02-28T12:33:03;9.23;;;4.65;;
75698;SDS011;64313;51.018;13.742;2023-02-28T12:35:49;15.93;;;5.38;;
75698;SDS011;64313;51.018;13.742;2023-02-28T12:41:12;10.82;;;5.03;;
75698;SDS011;64313;51.018;13.742;2023-02-28T12:46:53;9.63;;;4.53;;
75698;SDS011;64313;51.018;13.742;2023-02-28T12:49:24;10.30;;;5.25;;
75698;SDS011;64313;51.018;13.742;2023-02-28T12:51:56;8.98;;;5.00;;
75698;SDS011;64313;51.018;13.742;2023-02-28T12:57:31;10.63;;;5.15;;
75698;SDS011;64313;51.018;13.742;2023-02-28T12:59:59;10.73;;;5.03;;
75698;SDS011;64313;51.018;13.742;2023-02-28T13:02:43;9.13;;;4.68;;
75698;SDS011;64313;51.018;13.742;2023-02-28T13:10:52;9.85;;;4.82;;
75698;SDS011;64313;51.018;13.742;2023-02-28T13:13:24;10.13;;;4.97;;
75698;SDS011;64313;51.018;13.742;2023-02-28T13:15:56;9.95;;;5.00;;
75698;SDS011;64313;51.018;13.742;2023-02-28T13:18:57;9.30;;;5.07;;
75698;SDS011;64313;51.018;13.742;2023-02-28T13:21:27;10.20;;;4.78;;
75698;SDS011;64313;51.018;13.742;2023-02-28T13:29:00;9.48;;;4.85;;
75698;SDS011;64313;51.018;13.742;2023-02-28T13:31:29;9.35;;;5.13;;
75698;SDS011;64313;51.018;13.742;2023-02-28T13:36:23;9.20;;;5.00;;
75698;SDS011;64313;51.018;13.742;2023-02-28T13:38:52;10.43;;;5.53;;
75698;SDS011;64313;51.018;13.742;2023-02-28T13:44:20;11.65;;;6.43;;
75698;SDS011;64313;51.018;13.742;2023-02-28T13:52:02;12.23;;;6.60;;
75698;SDS011;64313;51.018;13.742;2023-02-28T13:54:45;12.23;;;5.93;;
75698;SDS011;64313;51.018;13.742;2023-02-28T14:02:48;12.60;;;6.22;;
75698;SDS011;64313;51.018;13.742;2023-02-28T14:05:18;12.57;;;6.47;;
75698;SDS011;64313;51.018;13.742;2023-02-28T14:07:55;14.02;;;6.65;;
75698;SDS011;64313;51.018;13.742;2023-02-28T14:10:27;10.55;;;5.60;;
75698;SDS011;64313;51.018;13.742;2023-02-28T14:12:56;12.27;;;6.20;;
75698;SDS011;64313;51.018;13.742;2023-02-28T14:17:57;11.07;;;5.78;;
75698;SDS011;64313;51.018;13.742;2023-02-28T14:20:27;11.80;;;6.28;;
75698;SDS011;64313;51.018;13.742;2023-02-28T14:23:03;11.63;;;6.30;;
75698;SDS011;64313;51.018;13.742;2023-02-28T14:25:40;11.68;;;5.70;;
75698;SDS011;64313;51.018;13.742;2023-02-28T14:31:10;11.18;;;5.82;;
75698;SDS011;64313;51.018;13.742;2023-02-28T14:33:44;10.57;;;6.25;;
75698;SDS011;64313;51.018;13.742;2023-02-28T14:36:46;10.75;;;5.90;;
75698;SDS011;64313;51.018;13.742;2023-02-28T14:39:14;14.82;;;6.45;;
75698;SDS011;64313;51.018;13.742;2023-02-28T14:41:44;11.88;;;6.00;;
75698;SDS011;64313;51.018;13.742;2023-02-28T14:44:19;11.45;;;6.10;;
75698;SDS011;64313;51.018;13.742;2023-02-28T14:46:52;11.80;;;6.03;;
75698;SDS011;64313;51.018;13.742;2023-02-28T14:49:26;11.45;;;6.15;;
75698;SDS011;64313;51.018;13.742;2023-02-28T14:54:40;14.13;;;6.00;;
75698;SDS011;64313;51.018;13.742;2023-02-28T14:57:06;12.38;;;6.43;;
75698;SDS011;64313;51.018;13.742;2023-02-28T14:59:56;11.32;;;5.70;;
75698;SDS011;64313;51.018;13.742;2023-02-28T15:02:24;9.10;;;5.15;;
75698;SDS011;64313;51.018;13.742;2023-02-28T15:04:54;10.95;;;5.45;;
75698;SDS011;64313;51.018;13.742;2023-02-28T15:07:43;10.82;;;5.50;;
75698;SDS011;64313;51.018;13.742;2023-02-28T15:10:25;11.07;;;5.93;;
75698;SDS011;64313;51.018;13.742;2023-02-28T15:15:19;10.95;;;5.78;;
75698;SDS011;64313;51.018;13.742;2023-02-28T15:17:48;11.07;;;5.97;;
75698;SDS011;64313;51.018;13.742;2023-02-28T15:20:17;12.13;;;6.00;;
75698;SDS011;64313;51.018;13.742;2023-02-28T15:22:44;13.90;;;6.25;;
75698;SDS011;64313;51.018;13.742;2023-02-28T15:25:13;13.48;;;6.22;;
75698;SDS011;64313;51.018;13.742;2023-02-28T15:27:48;16.00;;;6.53;;
75698;SDS011;64313;51.018;13.742;2023-02-28T15:30:24;11.68;;;5.57;;
75698;SDS011;64313;51.018;13.742;2023-02-28T15:36:14;10.95;;;6.18;;
75698;SDS011;64313;51.018;13.742;2023-02-28T15:38:42;12.23;;;5.97;;
75698;SDS011;64313;51.018;13.742;2023-02-28T15:41:27;12.85;;;6.10;;
75698;SDS011;64313;51.018;13.742;2023-02-28T15:44:17;13.50;;;6.10;;
75698;SDS011;64313;51.018;13.742;2023-02-28T15:46:57;11.88;;;5.63;;
75698;SDS011;64313;51.018;13.742;2023-02-28T15:49:23;11.70;;;5.68;;
75698;SDS011;64313;51.018;13.742;2023-02-28T15:54:19;12.23;;;6.18;;
75698;SDS011;64313;51.018;13.742;2023-02-28T15:56:53;13.70;;;6.03;;
75698;SDS011;64313;51.018;13.742;2023-02-28T15:59:22;10.68;;;6.18;;
75698;SDS011;64313;51.018;13.742;2023-02-28T16:04:28;12.98;;;6.43;;
75698;SDS011;64313;51.018;13.742;2023-02-28T16:09:24;14.32;;;6.07;;
75698;SDS011;64313;51.018;13.742;2023-02-28T16:11:53;11.77;;;6.03;;
75698;SDS011;64313;51.018;13.742;2023-02-28T16:14:22;13.75;;;6.38;;
75698;SDS011;64313;51.018;13.742;2023-02-28T16:16:51;13.63;;;6.45;;
75698;SDS011;64313;51.018;13.742;2023-02-28T16:19:19;12.52;;;6.10;;
75698;SDS011;64313;51.018;13.742;2023-02-28T16:21:45;12.50;;;6.50;;
75698;SDS011;64313;51.018;13.742;2023-02-28T16:24:10;13.18;;;6.80;;
75698;SDS011;64313;51.018;13.742;2023-02-28T16:26:35;13.38;;;5.88;;
75698;SDS011;64313;51.018;13.742;2023-02-28T16:29:04;10.93;;;6.75;;
75698;SDS011;64313;51.018;13.742;2023-02-28T16:31:29;12.45;;;6.32;;
75698;SDS011;64313;51.018;13.742;2023-02-28T16:33:58;14.65;;;6.93;;
75698;SDS011;64313;51.018;13.742;2023-02-28T16:36:24;13.93;;;6.78;;
75698;SDS011;64313;51.018;13.742;2023-02-28T16:38:53;14.07;;;6.70;;
75698;SDS011;64313;51.018;13.742;2023-02-28T16:41:21;13.55;;;6.53;;
75698;SDS011;64313;51.018;13.742;2023-02-28T16:43:50;12.27;;;6.63;;
75698;SDS011;64313;51.018;13.742;2023-02-28T16:46:17;14.20;;;6.75;;
75698;SDS011;64313;51.018;13.742;2023-02-28T16:48:44;11.80;;;6.28;;
75698;SDS011;64313;51.018;13.742;2023-02-28T16:53:39;12.32;;;6.25;;
75698;SDS011;64313;51.018;13.742;2023-02-28T16:56:04;11.73;;;6.65;;
75698;SDS011;64313;51.018;13.742;2023-02-28T16:58:31;15.85;;;6.97;;
75698;SDS011;64313;51.018;13.742;2023-02-28T17:01:00;15.18;;;7.72;;
75698;SDS011;64313;51.018;13.742;2023-02-28T17:05:52;15.23;;;7.32;;
75698;SDS011;64313;51.018;13.742;2023-02-28T17:08:18;15.15;;;8.13;;
75698;SDS011;64313;51.018;13.742;2023-02-28T17:10:43;16.15;;;7.20;;
75698;SDS011;64313;51.018;13.742;2023-02-28T17:13:08;16.27;;;8.70;;
75698;SDS011;64313;51.018;13.742;2023-02-28T17:15:34;18.17;;;8.40;;
75698;SDS011;64313;51.018;13.742;2023-02-28T17:18:00;24.13;;;12.90;;
75698;SDS011;64313;51.018;13.742;2023-02-28T17:20:25;33.95;;;16.50;;